sensor_id;sensor_type;location;lat;lon;timestamp;pressure;altitude;pressure_sealevel;temperature;humidity
43553;BME280;29153;42.696;23.218;2023-06-22T00:01:02;94895.41;;;15.38;100.00
43553;BME280;29153;42.696;23.218;2023-06-22T00:03:30;94898.14;;;15.36;100.00
43553;BME280;29153;42.696;23.218;2023-06-22T00:05:57;94895.21;;;15.35;100.00
43553;BME280;29153;42.696;23.218;2023-06-22T00:08:25;94901.88;;;15.35;100.00
43553;BME280;29153;42.696;23.218;2023-06-22T00:10:52;94888.28;;;15.34;100.00
43553;BME280;29153;42.696;23.218;2023-06-22T00:13:20;94890.61;;;15.38;100.00
43553;BME280;29153;42.696;23.218;2023-06-22T00:15:48;94890.27;;;15.42;100.00
43553;BME280;29153;42.696;23.218;2023-06-22T00:18:15;94886.41;;;15.34;100.00
43553;BME280;29153;42.696;23.218;2023-06-22T00:20:43;94879.34;;;15.27;100.00
43553;BME280;29153;42.696;23.218;2023-06-22T00:23:12;94869.48;;;15.25;100.00
43553;BME280;29153;42.696;23.218;2023-06-22T00:25:41;94867.09;;;15.24;100.00
43553;BME280;29153;42.696;23.218;2023-06-22T00:28:09;94866.69;;;15.17;100.00
43553;BME280;29153;42.696;23.218;2023-06-22T00:30:37;94873.53;;;15.07;100.00
43553;BME280;29153;42.696;23.218;2023-06-22T00:33:05;94873.53;;;15.07;100.00
43553;BME280;29153;42.696;23.218;2023-06-22T00:35:34;94862.96;;;15.01;100.00
43553;BME280;29153;42.696;23.218;2023-06-22T00:38:01;94871.33;;;14.95;100.00
43553;BME280;29153;42.696;23.218;2023-06-22T00:40:31;94871.33;;;14.95;100.00
43553;BME280;29153;42.696;23.218;2023-06-22T00:43:01;94870.27;;;14.93;100.00
43553;BME280;29153;42.696;23.218;2023-06-22T00:45:30;94869.17;;;14.97;100.00
43553;BME280;29153;42.696;23.218;2023-06-22T00:47:58;94872.06;;;14.98;100.00
43553;BME280;29153;42.696;23.218;2023-06-22T00:50:28;94868.12;;;14.95;100.00
43553;BME280;29153;42.696;23.218;2023-06-22T00:53:03;94864.17;;;14.93;100.00
43553;BME280;29153;42.696;23.218;2023-06-22T00:55:32;94863.86;;;14.94;100.00
43553;BME280;29153;42.696;23.218;2023-06-22T00:58:01;94864.51;;;14.89;100.00
43553;BME280;29153;42.696;23.218;2023-06-22T01:00:28;94863.73;;;14.86;100.00
43553;BME280;29153;42.696;23.218;2023-06-22T01:02:56;94874.07;;;14.90;100.00
43553;BME280;29153;42.696;23.218;2023-06-22T01:05:24;94886.94;;;14.85;100.00
43553;BME280;29153;42.696;23.218;2023-06-22T01:07:59;94881.14;;;14.81;100.00
43553;BME280;29153;42.696;23.218;2023-06-22T01:18:17;94885.86;;;14.70;100.00
43553;BME280;29153;42.696;23.218;2023-06-22T01:20:49;94880.68;;;14.76;100.00
43553;BME280;29153;42.696;23.218;2023-06-22T01:31:55;94889.06;;;14.70;100.00
43553;BME280;29153;42.696;23.218;2023-06-22T01:34:28;94884.01;;;14.68;100.00
43553;BME280;29153;42.696;23.218;2023-06-22T01:36:59;94887.05;;;14.62;100.00
43553;BME280;29153;42.696;23.218;2023-06-22T01:39:28;94888.13;;;14.61;100.00
43553;BME280;29153;42.696;23.218;2023-06-22T01:41:58;94892.13;;;14.61;100.00
43553;BME280;29153;42.696;23.218;2023-06-22T01:44:27;94897.13;;;14.65;100.00
43553;BME280;29153;42.696;23.218;2023-06-22T01:46:57;94893.20;;;14.59;100.00
43553;BME280;29153;42.696;23.218;2023-06-22T01:52:15;94892.50;;;14.54;100.00
43553;BME280;29153;42.696;23.218;2023-06-22T01:54:40;94899.59;;;14.61;100.00
43553;BME280;29153;42.696;23.218;2023-06-22T02:03:25;94903.66;;;14.56;100.00
43553;BME280;29153;42.696;23.218;2023-06-22T02:05:09;94908.13;;;14.61;100.00
43553;BME280;29153;42.696;23.218;2023-06-22T02:07:49;94826.58;;;14.01;100.00
43553;BME280;29153;42.696;23.218;2023-06-22T02:10:15;94840.42;;;14.03;100.00
43553;BME280;29153;42.696;23.218;2023-06-22T02:12:45;94922.06;;;14.55;100.00
43553;BME280;29153;42.696;23.218;2023-06-22T02:15:15;94913.64;;;14.48;100.00
43553;BME280;29153;42.696;23.218;2023-06-22T02:17:44;94911.18;;;14.51;100.00
43553;BME280;29153;42.696;23.218;2023-06-22T02:20:20;94911.70;;;14.53;100.00
43553;BME280;29153;42.696;23.218;2023-06-22T02:22:49;94909.05;;;14.51;100.00
43553;BME280;29153;42.696;23.218;2023-06-22T02:25:17;94905.10;;;14.48;100.00
43553;BME280;29153;42.696;23.218;2023-06-22T02:27:45;94905.10;;;14.48;100.00
43553;BME280;29153;42.696;23.218;2023-06-22T02:30:15;94907.45;;;14.52;100.00
43553;BME280;29153;42.696;23.218;2023-06-22T02:32:43;94904.09;;;14.44;100.00
43553;BME280;29153;42.696;23.218;2023-06-22T02:35:10;94900.68;;;14.41;100.00
43553;BME280;29153;42.696;23.218;2023-06-22T02:37:39;94908.30;;;14.48;100.00
43553;BME280;29153;42.696;23.218;2023-06-22T02:40:09;94908.30;;;14.48;100.00
43553;BME280;29153;42.696;23.218;2023-06-22T02:42:37;94903.56;;;14.45;100.00
43553;BME280;29153;42.696;23.218;2023-06-22T02:45:05;94903.19;;;14.51;100.00
43553;BME280;29153;42.696;23.218;2023-06-22T02:47:33;94899.70;;;14.53;100.00
43553;BME280;29153;42.696;23.218;2023-06-22T02:50:01;94896.59;;;14.46;100.00
43553;BME280;29153;42.696;23.218;2023-06-22T02:52:28;94896.59;;;14.46;100.00
43553;BME280;29153;42.696;23.218;2023-06-22T02:54:56;94901.36;;;14.49;100.00
43553;BME280;29153;42.696;23.218;2023-06-22T02:57:23;94896.38;;;14.43;100.00
43553;BME280;29153;42.696;23.218;2023-06-22T02:59:51;94899.51;;;14.47;100.00
43553;BME280;29153;42.696;23.218;2023-06-22T03:02:22;94901.90;;;14.49;100.00
43553;BME280;29153;42.696;23.218;2023-06-22T03:04:51;94893.53;;;14.55;100.00
43553;BME280;29153;42.696;23.218;2023-06-22T03:07:20;94905.72;;;14.62;100.00
43553;BME280;29153;42.696;23.218;2023-06-22T03:09:48;94905.72;;;14.62;100.00
43553;BME280;29153;42.696;23.218;2023-06-22T03:12:18;94916.97;;;14.58;100.00
43553;BME280;29153;42.696;23.218;2023-06-22T03:14:46;94914.53;;;14.59;100.00
43553;BME280;29153;42.696;23.218;2023-06-22T03:17:21;94912.31;;;14.67;100.00
43553;BME280;29153;42.696;23.218;2023-06-22T03:19:42;94912.31;;;14.67;100.00
43553;BME280;29153;42.696;23.218;2023-06-22T03:22:11;94927.78;;;14.67;100.00
43553;BME280;29153;42.696;23.218;2023-06-22T03:24:42;94929.80;;;14.75;100.00
43553;BME280;29153;42.696;23.218;2023-06-22T03:27:10;94921.95;;;14.81;100.00
43553;BME280;29153;42.696;23.218;2023-06-22T03:29:37;94924.94;;;14.96;100.00
43553;BME280;29153;42.696;23.218;2023-06-22T03:32:05;94924.94;;;14.96;100.00
43553;BME280;29153;42.696;23.218;2023-06-22T03:34:33;94929.76;;;14.94;100.00
43553;BME280;29153;42.696;23.218;2023-06-22T03:37:02;94933.76;;;14.94;100.00
43553;BME280;29153;42.696;23.218;2023-06-22T03:39:30;94946.75;;;15.00;100.00
43553;BME280;29153;42.696;23.218;2023-06-22T03:41:57;94945.56;;;15.07;100.00
43553;BME280;29153;42.696;23.218;2023-06-22T03:44:25;94958.56;;;15.13;100.00
43553;BME280;29153;42.696;23.218;2023-06-22T03:46:53;94955.58;;;15.15;100.00
43553;BME280;29153;42.696;23.218;2023-06-22T03:49:22;94954.61;;;15.27;100.00
43553;BME280;29153;42.696;23.218;2023-06-22T03:51:50;94954.61;;;15.27;100.00
43553;BME280;29153;42.696;23.218;2023-06-22T03:54:19;94954.73;;;15.35;100.00
43553;BME280;29153;42.696;23.218;2023-06-22T03:56:46;94954.73;;;15.35;100.00
43553;BME280;29153;42.696;23.218;2023-06-22T03:59:14;94955.53;;;15.36;100.00
43553;BME280;29153;42.696;23.218;2023-06-22T04:01:41;94951.66;;;15.44;100.00
43553;BME280;29153;42.696;23.218;2023-06-22T04:04:09;94956.88;;;15.52;100.00
43553;BME280;29153;42.696;23.218;2023-06-22T04:06:37;94953.91;;;15.54;100.00
43553;BME280;29153;42.696;23.218;2023-06-22T04:09:06;94946.66;;;15.57;100.00
43553;BME280;29153;42.696;23.218;2023-06-22T04:11:33;94937.71;;;15.64;100.00
43553;BME280;29153;42.696;23.218;2023-06-22T04:14:02;94932.54;;;15.70;100.00
43553;BME280;29153;42.696;23.218;2023-06-22T04:16:30;94932.59;;;15.81;100.00
43553;BME280;29153;42.696;23.218;2023-06-22T04:18:57;94928.69;;;15.89;100.00
43553;BME280;29153;42.696;23.218;2023-06-22T04:21:25;94934.73;;;15.95;100.00
43553;BME280;29153;42.696;23.218;2023-06-22T04:23:53;94933.44;;;16.06;100.00
43553;BME280;29153;42.696;23.218;2023-06-22T04:26:22;94933.37;;;16.22;100.00
43553;BME280;29153;42.696;23.218;2023-06-22T04:28:49;94933.72;;;16.32;100.00
43553;BME280;29153;42.696;23.218;2023-06-22T04:31:17;94927.38;;;16.42;100.00
43553;BME280;29153;42.696;23.218;2023-06-22T04:33:47;94929.81;;;16.52;100.00
43553;BME280;29153;42.696;23.218;2023-06-22T04:36:17;94927.47;;;16.64;100.00
43553;BME280;29153;42.696;23.218;2023-06-22T04:38:44;94929.36;;;16.74;100.00
43553;BME280;29153;42.696;23.218;2023-06-22T04:41:12;94935.76;;;16.87;100.00
43553;BME280;29153;42.696;23.218;2023-06-22T04:43:40;94935.47;;;17.00;100.00
43553;BME280;29153;42.696;23.218;2023-06-22T04:46:08;94941.94;;;17.10;100.00
43553;BME280;29153;42.696;23.218;2023-06-22T04:48:35;94949.95;;;17.21;100.00
43553;BME280;29153;42.696;23.218;2023-06-22T04:51:03;94954.66;;;17.26;100.00
43553;BME280;29153;42.696;23.218;2023-06-22T04:53:32;94957.81;;;17.40;100.00
43553;BME280;29153;42.696;23.218;2023-06-22T04:55:59;94943.69;;;17.59;100.00
43553;BME280;29153;42.696;23.218;2023-06-22T04:58:27;94946.17;;;17.78;100.00
43553;BME280;29153;42.696;23.218;2023-06-22T05:00:55;94946.76;;;17.86;100.00
43553;BME280;29153;42.696;23.218;2023-06-22T05:03:28;94939.00;;;17.95;100.00
43553;BME280;29153;42.696;23.218;2023-06-22T05:05:52;94948.34;;;18.06;100.00
43553;BME280;29153;42.696;23.218;2023-06-22T05:08:20;94941.75;;;18.12;100.00
43553;BME280;29153;42.696;23.218;2023-06-22T05:10:48;94941.40;;;18.25;100.00
43553;BME280;29153;42.696;23.218;2023-06-22T05:13:15;94939.94;;;18.39;100.00
43553;BME280;29153;42.696;23.218;2023-06-22T05:15:43;94940.52;;;18.47;100.00
43553;BME280;29153;42.696;23.218;2023-06-22T05:18:12;94944.75;;;18.59;100.00
43553;BME280;29153;42.696;23.218;2023-06-22T05:20:40;94942.73;;;18.82;100.00
43553;BME280;29153;42.696;23.218;2023-06-22T05:23:07;94944.14;;;18.88;100.00
43553;BME280;29153;42.696;23.218;2023-06-22T05:25:35;94944.64;;;19.07;100.00
43553;BME280;29153;42.696;23.218;2023-06-22T05:28:03;94950.71;;;19.10;100.00
43553;BME280;29153;42.696;23.218;2023-06-22T05:30:32;94953.30;;;19.21;99.43
43553;BME280;29153;42.696;23.218;2023-06-22T05:32:59;94957.02;;;19.31;99.69
43553;BME280;29153;42.696;23.218;2023-06-22T05:35:27;94954.03;;;19.33;100.00
43553;BME280;29153;42.696;23.218;2023-06-22T05:37:56;94962.94;;;19.39;99.13
43553;BME280;29153;42.696;23.218;2023-06-22T05:40:24;94964.55;;;19.49;96.65
43553;BME280;29153;42.696;23.218;2023-06-22T05:42:51;94969.59;;;19.42;95.99
43553;BME280;29153;42.696;23.218;2023-06-22T05:45:19;94979.63;;;19.56;94.61
43553;BME280;29153;42.696;23.218;2023-06-22T05:47:46;94984.03;;;19.69;93.55
43553;BME280;29153;42.696;23.218;2023-06-22T05:50:14;94983.88;;;19.74;94.35
43553;BME280;29153;42.696;23.218;2023-06-22T05:52:41;94985.61;;;19.79;94.02
43553;BME280;29153;42.696;23.218;2023-06-22T05:55:09;94992.79;;;19.89;93.29
43553;BME280;29153;42.696;23.218;2023-06-22T05:57:37;94989.73;;;19.99;93.17
43553;BME280;29153;42.696;23.218;2023-06-22T06:00:05;94991.61;;;20.08;94.16
43553;BME280;29153;42.696;23.218;2023-06-22T06:02:34;94984.59;;;20.24;92.14
43553;BME280;29153;42.696;23.218;2023-06-22T06:05:02;94981.89;;;20.32;93.28
43553;BME280;29153;42.696;23.218;2023-06-22T06:07:30;94983.20;;;20.41;91.96
43553;BME280;29153;42.696;23.218;2023-06-22T06:09:59;94980.50;;;20.41;90.01
43553;BME280;29153;42.696;23.218;2023-06-22T06:12:27;94980.47;;;20.50;90.33
43553;BME280;29153;42.696;23.218;2023-06-22T06:14:54;94974.86;;;20.63;89.76
43553;BME280;29153;42.696;23.218;2023-06-22T06:17:23;94983.18;;;20.79;87.93
43553;BME280;29153;42.696;23.218;2023-06-22T06:19:50;94989.86;;;20.87;88.16
43553;BME280;29153;42.696;23.218;2023-06-22T06:22:19;94976.47;;;21.00;88.88
43553;BME280;29153;42.696;23.218;2023-06-22T06:24:49;94985.27;;;21.23;85.71
43553;BME280;29153;42.696;23.218;2023-06-22T06:27:18;94971.83;;;21.29;86.19
43553;BME280;29153;42.696;23.218;2023-06-22T06:29:45;94980.64;;;21.39;86.28
43553;BME280;29153;42.696;23.218;2023-06-22T06:32:14;94973.19;;;21.56;87.58
43553;BME280;29153;42.696;23.218;2023-06-22T06:34:42;94970.53;;;21.74;87.18
43553;BME280;29153;42.696;23.218;2023-06-22T06:37:10;94977.37;;;21.93;84.82
43553;BME280;29153;42.696;23.218;2023-06-22T06:39:37;94977.30;;;22.13;86.27
43553;BME280;29153;42.696;23.218;2023-06-22T06:42:05;94945.27;;;22.12;84.08
43553;BME280;29153;42.696;23.218;2023-06-22T06:44:32;94967.78;;;22.58;84.16
43553;BME280;29153;42.696;23.218;2023-06-22T06:46:59;94979.50;;;22.75;81.73
43553;BME280;29153;42.696;23.218;2023-06-22T06:49:27;94970.90;;;23.03;82.82
43553;BME280;29153;42.696;23.218;2023-06-22T06:51:55;94965.91;;;23.23;80.33
43553;BME280;29153;42.696;23.218;2023-06-22T06:54:23;94964.28;;;23.46;80.09
43553;BME280;29153;42.696;23.218;2023-06-22T06:56:50;94961.66;;;23.56;81.85
43553;BME280;29153;42.696;23.218;2023-06-22T06:59:18;94967.03;;;23.84;80.72
43553;BME280;29153;42.696;23.218;2023-06-22T07:01:45;94962.00;;;23.98;80.44
43553;BME280;29153;42.696;23.218;2023-06-22T07:04:15;94959.27;;;24.04;78.28
43553;BME280;29153;42.696;23.218;2023-06-22T07:06:42;94963.23;;;24.22;75.70
43553;BME280;29153;42.696;23.218;2023-06-22T07:09:10;94959.22;;;24.10;81.58
43553;BME280;29153;42.696;23.218;2023-06-22T07:11:37;94958.52;;;24.19;78.88
43553;BME280;29153;42.696;23.218;2023-06-22T07:14:05;94960.83;;;24.27;77.27
43553;BME280;29153;42.696;23.218;2023-06-22T07:16:32;94968.86;;;24.39;78.85
43553;BME280;29153;42.696;23.218;2023-06-22T07:19:00;94965.42;;;24.32;81.40
43553;BME280;29153;42.696;23.218;2023-06-22T07:21:28;94962.86;;;24.30;78.88
43553;BME280;29153;42.696;23.218;2023-06-22T07:23:58;94967.99;;;24.35;76.12
43553;BME280;29153;42.696;23.218;2023-06-22T07:26:25;94969.48;;;24.32;76.66
43553;BME280;29153;42.696;23.218;2023-06-22T07:28:54;94966.16;;;24.23;78.17
43553;BME280;29153;42.696;23.218;2023-06-22T07:31:26;94964.42;;;24.46;78.93
43553;BME280;29153;42.696;23.218;2023-06-22T07:33:54;94968.51;;;24.56;77.47
43553;BME280;29153;42.696;23.218;2023-06-22T07:36:21;94971.78;;;24.71;76.25
43553;BME280;29153;42.696;23.218;2023-06-22T07:38:48;94976.57;;;24.78;75.90
43553;BME280;29153;42.696;23.218;2023-06-22T07:41:16;94970.77;;;25.20;79.52
43553;BME280;29153;42.696;23.218;2023-06-22T07:43:43;94977.41;;;25.58;74.23
43553;BME280;29153;42.696;23.218;2023-06-22T07:46:11;94979.95;;;25.89;72.82
43553;BME280;29153;42.696;23.218;2023-06-22T07:48:38;94979.71;;;26.26;71.54
43553;BME280;29153;42.696;23.218;2023-06-22T07:51:07;94984.36;;;26.62;69.70
43553;BME280;29153;42.696;23.218;2023-06-22T07:53:36;94979.58;;;26.65;70.72
43553;BME280;29153;42.696;23.218;2023-06-22T07:56:03;94981.22;;;26.47;68.23
43553;BME280;29153;42.696;23.218;2023-06-22T07:58:32;94975.70;;;26.79;66.79
43553;BME280;29153;42.696;23.218;2023-06-22T08:01:00;94972.58;;;26.77;65.81
43553;BME280;29153;42.696;23.218;2023-06-22T08:03:27;94965.00;;;26.77;67.44
43553;BME280;29153;42.696;23.218;2023-06-22T08:05:59;94960.97;;;26.80;68.60
43553;BME280;29153;42.696;23.218;2023-06-22T08:08:29;94953.43;;;26.83;69.29
43553;BME280;29153;42.696;23.218;2023-06-22T08:10:55;94950.92;;;26.84;68.39
43553;BME280;29153;42.696;23.218;2023-06-22T08:13:23;94945.72;;;27.11;70.14
43553;BME280;29153;42.696;23.218;2023-06-22T08:15:50;94948.43;;;27.25;72.01
43553;BME280;29153;42.696;23.218;2023-06-22T08:18:19;94946.06;;;27.23;71.01
43553;BME280;29153;42.696;23.218;2023-06-22T08:20:46;94946.41;;;27.35;67.73
43553;BME280;29153;42.696;23.218;2023-06-22T08:23:15;94947.30;;;27.72;64.62
43553;BME280;29153;42.696;23.218;2023-06-22T08:25:43;94940.50;;;27.92;69.01
43553;BME280;29153;42.696;23.218;2023-06-22T08:28:10;94943.17;;;28.05;68.40
43553;BME280;29153;42.696;23.218;2023-06-22T08:30:39;94938.30;;;28.69;64.63
43553;BME280;29153;42.696;23.218;2023-06-22T08:33:07;94938.48;;;28.90;64.70
43553;BME280;29153;42.696;23.218;2023-06-22T08:35:37;94940.63;;;28.91;65.77
43553;BME280;29153;42.696;23.218;2023-06-22T08:38:05;94938.27;;;28.89;56.65
43553;BME280;29153;42.696;23.218;2023-06-22T08:40:32;94930.77;;;29.34;56.93
43553;BME280;29153;42.696;23.218;2023-06-22T08:43:00;94938.98;;;29.10;56.13
43553;BME280;29153;42.696;23.218;2023-06-22T08:45:28;94944.58;;;29.31;54.51
43553;BME280;29153;42.696;23.218;2023-06-22T08:47:55;94938.20;;;29.44;53.90
43553;BME280;29153;42.696;23.218;2023-06-22T08:50:23;94934.24;;;29.79;62.76
43553;BME280;29153;42.696;23.218;2023-06-22T08:52:50;94929.85;;;30.09;56.31
43553;BME280;29153;42.696;23.218;2023-06-22T08:55:18;94927.49;;;30.01;60.25
43553;BME280;29153;42.696;23.218;2023-06-22T08:57:46;94923.63;;;30.16;50.00
43553;BME280;29153;42.696;23.218;2023-06-22T09:00:14;94917.58;;;30.27;52.52
43553;BME280;29153;42.696;23.218;2023-06-22T09:02:49;94911.77;;;30.53;50.81
43553;BME280;29153;42.696;23.218;2023-06-22T09:05:16;94911.17;;;30.71;53.44
43553;BME280;29153;42.696;23.218;2023-06-22T09:07:44;94908.59;;;30.87;55.42
43553;BME280;29153;42.696;23.218;2023-06-22T09:10:12;94915.66;;;30.66;51.60
43553;BME280;29153;42.696;23.218;2023-06-22T09:12:40;94915.25;;;30.93;51.60
43553;BME280;29153;42.696;23.218;2023-06-22T09:15:09;94913.06;;;30.99;49.51
43553;BME280;29153;42.696;23.218;2023-06-22T09:17:37;94910.37;;;30.89;51.13
43553;BME280;29153;42.696;23.218;2023-06-22T09:20:05;94913.08;;;31.13;52.92
43553;BME280;29153;42.696;23.218;2023-06-22T09:22:34;94917.37;;;30.90;48.23
43553;BME280;29153;42.696;23.218;2023-06-22T09:25:02;94909.39;;;30.84;53.47
43553;BME280;29153;42.696;23.218;2023-06-22T09:27:30;94916.20;;;31.12;51.06
43553;BME280;29153;42.696;23.218;2023-06-22T09:29:57;94914.03;;;31.15;48.47
43553;BME280;29153;42.696;23.218;2023-06-22T09:32:25;94922.09;;;31.10;45.07
43553;BME280;29153;42.696;23.218;2023-06-22T09:34:53;94926.56;;;31.12;49.46
43553;BME280;29153;42.696;23.218;2023-06-22T09:37:21;94920.13;;;30.97;44.34
43553;BME280;29153;42.696;23.218;2023-06-22T09:39:48;94918.95;;;30.91;50.86
43553;BME280;29153;42.696;23.218;2023-06-22T09:42:16;94922.30;;;30.51;50.21
43553;BME280;29153;42.696;23.218;2023-06-22T09:44:43;94923.08;;;30.55;43.07
43553;BME280;29153;42.696;23.218;2023-06-22T09:47:11;94911.36;;;30.51;44.99
43553;BME280;29153;42.696;23.218;2023-06-22T09:49:38;94918.41;;;30.49;43.76
43553;BME280;29153;42.696;23.218;2023-06-22T09:52:06;94913.09;;;30.39;48.68
43553;BME280;29153;42.696;23.218;2023-06-22T09:54:34;94906.08;;;30.59;44.26
43553;BME280;29153;42.696;23.218;2023-06-22T09:57:01;94905.52;;;30.49;42.45
43553;BME280;29153;42.696;23.218;2023-06-22T09:59:29;94899.63;;;30.33;44.20
43553;BME280;29153;42.696;23.218;2023-06-22T10:01:56;94900.41;;;30.16;48.93
43553;BME280;29153;42.696;23.218;2023-06-22T10:04:23;94903.91;;;30.30;47.16
43553;BME280;29153;42.696;23.218;2023-06-22T10:06:51;94901.17;;;30.30;47.57
43553;BME280;29153;42.696;23.218;2023-06-22T10:09:18;94902.89;;;29.90;45.44
43553;BME280;29153;42.696;23.218;2023-06-22T10:11:47;94900.51;;;29.85;47.54
43553;BME280;29153;42.696;23.218;2023-06-22T10:14:15;94889.65;;;30.03;48.32
43553;BME280;29153;42.696;23.218;2023-06-22T10:16:43;94887.29;;;30.08;50.68
43553;BME280;29153;42.696;23.218;2023-06-22T10:19:10;94887.30;;;30.29;51.25
43553;BME280;29153;42.696;23.218;2023-06-22T10:21:38;94892.43;;;30.45;50.19
43553;BME280;29153;42.696;23.218;2023-06-22T10:24:06;94833.80;;;30.21;51.75
43553;BME280;29153;42.696;23.218;2023-06-22T10:26:34;94887.52;;;30.55;53.83
43553;BME280;29153;42.696;23.218;2023-06-22T10:29:03;94888.49;;;30.64;47.55
43553;BME280;29153;42.696;23.218;2023-06-22T10:31:30;94880.88;;;30.60;51.91
43553;BME280;29153;42.696;23.218;2023-06-22T10:33:58;94881.48;;;30.52;47.60
43553;BME280;29153;42.696;23.218;2023-06-22T10:36:28;94881.47;;;30.42;42.48
43553;BME280;29153;42.696;23.218;2023-06-22T10:38:56;94879.91;;;30.51;48.81
43553;BME280;29153;42.696;23.218;2023-06-22T10:41:25;94872.30;;;30.72;53.48
43553;BME280;29153;42.696;23.218;2023-06-22T10:43:54;94874.99;;;30.83;46.47
43553;BME280;29153;42.696;23.218;2023-06-22T10:46:23;94870.52;;;30.81;48.59
43553;BME280;29153;42.696;23.218;2023-06-22T10:48:51;94865.64;;;30.69;48.66
43553;BME280;29153;42.696;23.218;2023-06-22T10:51:21;94865.07;;;30.63;47.20
43553;BME280;29153;42.696;23.218;2023-06-22T10:53:48;94861.14;;;30.74;49.41
43553;BME280;29153;42.696;23.218;2023-06-22T10:56:18;94864.67;;;30.61;42.79
43553;BME280;29153;42.696;23.218;2023-06-22T10:58:46;94863.88;;;30.71;47.56
43553;BME280;29153;42.696;23.218;2023-06-22T11:01:13;94864.89;;;30.55;44.69
43553;BME280;29153;42.696;23.218;2023-06-22T11:03:41;94866.60;;;30.43;42.57
43553;BME280;29153;42.696;23.218;2023-06-22T11:06:08;94862.52;;;30.60;43.74
43553;BME280;29153;42.696;23.218;2023-06-22T11:11:03;94856.06;;;30.69;50.52
43553;BME280;29153;42.696;23.218;2023-06-22T11:13:30;94861.11;;;30.82;52.61
43553;BME280;29153;42.696;23.218;2023-06-22T11:15:58;94858.75;;;30.91;49.17
43553;BME280;29153;42.696;23.218;2023-06-22T11:18:25;94851.92;;;30.87;52.92
43553;BME280;29153;42.696;23.218;2023-06-22T11:20:53;94847.98;;;30.95;48.02
43553;BME280;29153;42.696;23.218;2023-06-22T11:23:21;94843.05;;;31.16;45.60
43553;BME280;29153;42.696;23.218;2023-06-22T11:25:48;94841.89;;;31.17;47.95
43553;BME280;29153;42.696;23.218;2023-06-22T11:28:16;94839.50;;;31.26;46.03
43553;BME280;29153;42.696;23.218;2023-06-22T11:30:46;94843.11;;;31.45;45.97
43553;BME280;29153;42.696;23.218;2023-06-22T11:33:14;94841.92;;;31.50;44.23
43553;BME280;29153;42.696;23.218;2023-06-22T11:35:41;94836.69;;;31.44;46.36
43553;BME280;29153;42.696;23.218;2023-06-22T11:38:09;94832.52;;;31.61;46.19
43553;BME280;29153;42.696;23.218;2023-06-22T11:40:37;94834.62;;;31.69;45.83
43553;BME280;29153;42.696;23.218;2023-06-22T11:43:06;94784.16;;;31.27;45.47
43553;BME280;29153;42.696;23.218;2023-06-22T11:45:35;94834.73;;;31.44;48.26
43553;BME280;29153;42.696;23.218;2023-06-22T11:48:08;94838.41;;;31.02;44.49
43553;BME280;29153;42.696;23.218;2023-06-22T11:50:35;94832.78;;;30.77;45.27
43553;BME280;29153;42.696;23.218;2023-06-22T11:53:03;94826.39;;;30.36;46.61
43553;BME280;29153;42.696;23.218;2023-06-22T11:55:31;94824.44;;;30.22;52.02
43553;BME280;29153;42.696;23.218;2023-06-22T11:57:59;94832.25;;;30.13;47.13
43553;BME280;29153;42.696;23.218;2023-06-22T12:00:28;94835.38;;;29.98;46.72
43553;BME280;29153;42.696;23.218;2023-06-22T12:02:56;94832.02;;;29.77;46.21
43553;BME280;29153;42.696;23.218;2023-06-22T12:05:23;94838.77;;;29.49;46.26
43553;BME280;29153;42.696;23.218;2023-06-22T12:07:55;94848.92;;;29.07;51.35
43553;BME280;29153;42.696;23.218;2023-06-22T12:10:24;94854.80;;;28.74;57.03
43553;BME280;29153;42.696;23.218;2023-06-22T12:12:54;94856.44;;;27.91;72.01
43553;BME280;29153;42.696;23.218;2023-06-22T12:15:23;94864.95;;;27.15;81.84
43553;BME280;29153;42.696;23.218;2023-06-22T12:20:21;94877.20;;;25.59;93.80
43553;BME280;29153;42.696;23.218;2023-06-22T12:25:38;94876.58;;;24.88;98.08
43553;BME280;29153;42.696;23.218;2023-06-22T12:27:54;94900.53;;;24.20;93.33
43553;BME280;29153;42.696;23.218;2023-06-22T12:48:50;94848.14;;;20.33;100.00
43553;BME280;29153;42.696;23.218;2023-06-22T12:51:22;94849.17;;;20.34;100.00
43553;BME280;29153;42.696;23.218;2023-06-22T12:53:50;94858.11;;;20.47;100.00
43553;BME280;29153;42.696;23.218;2023-06-22T12:56:19;94856.58;;;20.52;100.00
43553;BME280;29153;42.696;23.218;2023-06-22T12:58:47;94864.52;;;20.49;100.00
43553;BME280;29153;42.696;23.218;2023-06-22T13:01:14;94858.72;;;20.38;100.00
43553;BME280;29153;42.696;23.218;2023-06-22T13:03:43;94852.83;;;20.44;100.00
43553;BME280;29153;42.696;23.218;2023-06-22T13:06:11;94856.70;;;20.56;100.00
43553;BME280;29153;42.696;23.218;2023-06-22T13:08:39;94848.37;;;20.69;100.00
43553;BME280;29153;42.696;23.218;2023-06-22T13:11:06;94845.19;;;20.88;100.00
43553;BME280;29153;42.696;23.218;2023-06-22T13:13:34;94850.22;;;21.04;100.00
43553;BME280;29153;42.696;23.218;2023-06-22T13:16:01;94849.17;;;21.17;100.00
43553;BME280;29153;42.696;23.218;2023-06-22T13:18:29;94855.13;;;21.23;100.00
43553;BME280;29153;42.696;23.218;2023-06-22T13:20:57;94863.67;;;21.31;100.00
43553;BME280;29153;42.696;23.218;2023-06-22T13:23:24;94863.00;;;21.28;100.00
43553;BME280;29153;42.696;23.218;2023-06-22T13:25:52;94874.25;;;21.36;100.00
43553;BME280;29153;42.696;23.218;2023-06-22T13:28:19;94879.41;;;21.35;100.00
43553;BME280;29153;42.696;23.218;2023-06-22T13:30:48;94876.86;;;21.39;100.00
43553;BME280;29153;42.696;23.218;2023-06-22T13:33:15;94887.30;;;21.40;100.00
43553;BME280;29153;42.696;23.218;2023-06-22T13:35:43;94894.39;;;21.39;100.00
43553;BME280;29153;42.696;23.218;2023-06-22T13:38:11;94893.59;;;21.44;100.00
43553;BME280;29153;42.696;23.218;2023-06-22T13:40:38;94876.55;;;21.46;100.00